sensor_id;sensor_type;location;lat;lon;timestamp;P1;durP1;ratioP1;P2;durP2;ratioP2
13185;SDS011;6658;53.080;7.428;2023-06-10T00:02:07;3.63;;;2.87;;
13185;SDS011;6658;53.080;7.428;2023-06-10T00:04:33;4.77;;;2.73;;
13185;SDS011;6658;53.080;7.428;2023-06-10T00:06:58;5.17;;;3.60;;
13185;SDS011;6658;53.080;7.428;2023-06-10T00:09:24;5.20;;;2.97;;
13185;SDS011;6658;53.080;7.428;2023-06-10T00:11:50;6.73;;;2.97;;
13185;SDS011;6658;53.080;7.428;2023-06-10T00:14:16;4.90;;;3.10;;
13185;SDS011;6658;53.080;7.428;2023-06-10T00:16:42;3.73;;;2.90;;
13185;SDS011;6658;53.080;7.428;2023-06-10T00:19:09;4.37;;;3.07;;
13185;SDS011;6658;53.080;7.428;2023-06-10T00:21:38;4.27;;;2.70;;
13185;SDS011;6658;53.080;7.428;2023-06-10T00:24:06;5.40;;;3.40;;
13185;SDS011;6658;53.080;7.428;2023-06-10T00:26:37;6.87;;;2.87;;
13185;SDS011;6658;53.080;7.428;2023-06-10T00:29:04;4.60;;;3.00;;
13185;SDS011;6658;53.080;7.428;2023-06-10T00:31:30;5.07;;;2.93;;
13185;SDS011;6658;53.080;7.428;2023-06-10T00:33:56;3.93;;;3.13;;
13185;SDS011;6658;53.080;7.428;2023-06-10T00:36:21;3.90;;;3.33;;
13185;SDS011;6658;53.080;7.428;2023-06-10T00:38:47;4.03;;;3.00;;
13185;SDS011;6658;53.080;7.428;2023-06-10T00:41:13;4.00;;;2.87;;
13185;SDS011;6658;53.080;7.428;2023-06-10T00:43:39;6.30;;;3.00;;
13185;SDS011;6658;53.080;7.428;2023-06-10T00:46:05;5.70;;;3.10;;
13185;SDS011;6658;53.080;7.428;2023-06-10T00:48:31;5.60;;;2.90;;
13185;SDS011;6658;53.080;7.428;2023-06-10T00:50:57;3.17;;;2.63;;
13185;SDS011;6658;53.080;7.428;2023-06-10T00:53:24;7.53;;;3.23;;
13185;SDS011;6658;53.080;7.428;2023-06-10T00:55:51;3.30;;;2.90;;
13185;SDS011;6658;53.080;7.428;2023-06-10T00:58:17;4.47;;;2.83;;
13185;SDS011;6658;53.080;7.428;2023-06-10T01:00:43;5.37;;;2.93;;
13185;SDS011;6658;53.080;7.428;2023-06-10T01:03:10;5.27;;;2.90;;
13185;SDS011;6658;53.080;7.428;2023-06-10T01:05:37;4.93;;;3.47;;
13185;SDS011;6658;53.080;7.428;2023-06-10T01:10:38;4.53;;;3.20;;
13185;SDS011;6658;53.080;7.428;2023-06-10T01:13:22;4.40;;;3.13;;
13185;SDS011;6658;53.080;7.428;2023-06-10T01:15:53;4.47;;;2.80;;
13185;SDS011;6658;53.080;7.428;2023-06-10T01:18:23;4.77;;;3.10;;
13185;SDS011;6658;53.080;7.428;2023-06-10T01:20:55;3.33;;;2.80;;
13185;SDS011;6658;53.080;7.428;2023-06-10T01:23:21;4.93;;;3.40;;
13185;SDS011;6658;53.080;7.428;2023-06-10T01:25:49;5.27;;;3.03;;
13185;SDS011;6658;53.080;7.428;2023-06-10T01:28:28;5.50;;;3.17;;
13185;SDS011;6658;53.080;7.428;2023-06-10T01:31:09;4.60;;;3.50;;
13185;SDS011;6658;53.080;7.428;2023-06-10T01:33:43;4.80;;;3.07;;
13185;SDS011;6658;53.080;7.428;2023-06-10T01:36:12;4.63;;;2.77;;
13185;SDS011;6658;53.080;7.428;2023-06-10T01:38:45;4.93;;;3.30;;
13185;SDS011;6658;53.080;7.428;2023-06-10T01:41:12;4.97;;;3.00;;
13185;SDS011;6658;53.080;7.428;2023-06-10T01:43:40;5.90;;;3.23;;
13185;SDS011;6658;53.080;7.428;2023-06-10T01:46:08;4.00;;;2.90;;
13185;SDS011;6658;53.080;7.428;2023-06-10T01:48:34;6.57;;;3.20;;
13185;SDS011;6658;53.080;7.428;2023-06-10T01:51:00;6.13;;;3.57;;
13185;SDS011;6658;53.080;7.428;2023-06-10T01:53:26;4.47;;;3.30;;
13185;SDS011;6658;53.080;7.428;2023-06-10T01:55:52;4.80;;;3.13;;
13185;SDS011;6658;53.080;7.428;2023-06-10T01:58:17;3.43;;;2.87;;
13185;SDS011;6658;53.080;7.428;2023-06-10T02:00:43;4.33;;;2.80;;
13185;SDS011;6658;53.080;7.428;2023-06-10T02:03:08;5.83;;;2.70;;
13185;SDS011;6658;53.080;7.428;2023-06-10T02:05:34;5.07;;;3.23;;
13185;SDS011;6658;53.080;7.428;2023-06-10T02:08:00;5.63;;;3.23;;
13185;SDS011;6658;53.080;7.428;2023-06-10T02:10:26;4.60;;;3.03;;
13185;SDS011;6658;53.080;7.428;2023-06-10T02:12:52;5.17;;;3.13;;
13185;SDS011;6658;53.080;7.428;2023-06-10T02:15:17;5.33;;;3.20;;
13185;SDS011;6658;53.080;7.428;2023-06-10T02:17:43;4.50;;;3.10;;
13185;SDS011;6658;53.080;7.428;2023-06-10T02:20:10;4.97;;;3.57;;
13185;SDS011;6658;53.080;7.428;2023-06-10T02:22:36;3.80;;;3.10;;
13185;SDS011;6658;53.080;7.428;2023-06-10T02:25:03;5.70;;;3.60;;
13185;SDS011;6658;53.080;7.428;2023-06-10T02:27:30;4.23;;;3.23;;
13185;SDS011;6658;53.080;7.428;2023-06-10T02:29:56;5.50;;;3.80;;
13185;SDS011;6658;53.080;7.428;2023-06-10T02:32:22;6.47;;;3.80;;
13185;SDS011;6658;53.080;7.428;2023-06-10T02:34:48;7.57;;;3.60;;
13185;SDS011;6658;53.080;7.428;2023-06-10T02:37:14;7.37;;;3.73;;
13185;SDS011;6658;53.080;7.428;2023-06-10T02:39:40;7.60;;;3.40;;
13185;SDS011;6658;53.080;7.428;2023-06-10T02:42:06;6.57;;;3.50;;
13185;SDS011;6658;53.080;7.428;2023-06-10T02:44:32;8.03;;;3.70;;
13185;SDS011;6658;53.080;7.428;2023-06-10T02:46:58;4.57;;;3.40;;
13185;SDS011;6658;53.080;7.428;2023-06-10T02:49:23;5.77;;;3.87;;
13185;SDS011;6658;53.080;7.428;2023-06-10T02:51:50;4.43;;;3.50;;
13185;SDS011;6658;53.080;7.428;2023-06-10T02:54:18;3.90;;;3.50;;
13185;SDS011;6658;53.080;7.428;2023-06-10T02:56:51;6.33;;;3.67;;
13185;SDS011;6658;53.080;7.428;2023-06-10T02:59:17;5.10;;;3.97;;
13185;SDS011;6658;53.080;7.428;2023-06-10T03:01:44;6.20;;;3.90;;
13185;SDS011;6658;53.080;7.428;2023-06-10T03:04:10;5.33;;;3.60;;
13185;SDS011;6658;53.080;7.428;2023-06-10T03:06:38;6.10;;;3.67;;
13185;SDS011;6658;53.080;7.428;2023-06-10T03:09:06;6.70;;;3.87;;
13185;SDS011;6658;53.080;7.428;2023-06-10T03:11:35;5.97;;;3.57;;
13185;SDS011;6658;53.080;7.428;2023-06-10T03:14:01;5.53;;;3.63;;
13185;SDS011;6658;53.080;7.428;2023-06-10T03:16:27;4.60;;;3.53;;
13185;SDS011;6658;53.080;7.428;2023-06-10T03:18:52;4.00;;;3.67;;
13185;SDS011;6658;53.080;7.428;2023-06-10T03:21:18;5.47;;;4.03;;
13185;SDS011;6658;53.080;7.428;2023-06-10T03:23:45;5.67;;;3.53;;
13185;SDS011;6658;53.080;7.428;2023-06-10T03:26:11;5.40;;;3.80;;
13185;SDS011;6658;53.080;7.428;2023-06-10T03:28:38;6.00;;;3.80;;
13185;SDS011;6658;53.080;7.428;2023-06-10T03:31:04;7.03;;;4.20;;
13185;SDS011;6658;53.080;7.428;2023-06-10T03:33:30;6.13;;;3.77;;
13185;SDS011;6658;53.080;7.428;2023-06-10T03:35:56;7.97;;;3.80;;
13185;SDS011;6658;53.080;7.428;2023-06-10T03:38:22;8.70;;;4.00;;
13185;SDS011;6658;53.080;7.428;2023-06-10T03:40:47;5.60;;;4.17;;
13185;SDS011;6658;53.080;7.428;2023-06-10T03:43:13;5.77;;;4.10;;
13185;SDS011;6658;53.080;7.428;2023-06-10T03:45:39;7.27;;;4.13;;
13185;SDS011;6658;53.080;7.428;2023-06-10T03:48:06;5.83;;;4.20;;
13185;SDS011;6658;53.080;7.428;2023-06-10T03:50:33;6.93;;;4.23;;
13185;SDS011;6658;53.080;7.428;2023-06-10T03:52:59;5.67;;;4.17;;
13185;SDS011;6658;53.080;7.428;2023-06-10T03:55:27;6.00;;;4.40;;
13185;SDS011;6658;53.080;7.428;2023-06-10T03:57:53;5.27;;;3.67;;
13185;SDS011;6658;53.080;7.428;2023-06-10T04:00:19;7.20;;;4.73;;
13185;SDS011;6658;53.080;7.428;2023-06-10T04:02:46;6.77;;;4.73;;
13185;SDS011;6658;53.080;7.428;2023-06-10T04:05:18;6.87;;;4.20;;
13185;SDS011;6658;53.080;7.428;2023-06-10T04:07:47;6.13;;;4.20;;
13185;SDS011;6658;53.080;7.428;2023-06-10T04:10:13;7.93;;;4.83;;
13185;SDS011;6658;53.080;7.428;2023-06-10T04:12:39;6.53;;;4.73;;
13185;SDS011;6658;53.080;7.428;2023-06-10T04:15:06;7.17;;;4.87;;
13185;SDS011;6658;53.080;7.428;2023-06-10T04:17:32;4.93;;;4.40;;
13185;SDS011;6658;53.080;7.428;2023-06-10T04:19:58;8.27;;;4.60;;
13185;SDS011;6658;53.080;7.428;2023-06-10T04:22:24;6.03;;;4.97;;
13185;SDS011;6658;53.080;7.428;2023-06-10T04:24:49;6.17;;;4.43;;
13185;SDS011;6658;53.080;7.428;2023-06-10T04:27:15;8.33;;;4.73;;
13185;SDS011;6658;53.080;7.428;2023-06-10T04:29:41;6.37;;;4.53;;
13185;SDS011;6658;53.080;7.428;2023-06-10T04:32:06;6.10;;;4.47;;
13185;SDS011;6658;53.080;7.428;2023-06-10T04:34:33;6.30;;;4.87;;
13185;SDS011;6658;53.080;7.428;2023-06-10T04:36:59;6.37;;;4.47;;
13185;SDS011;6658;53.080;7.428;2023-06-10T04:39:25;5.53;;;4.23;;
13185;SDS011;6658;53.080;7.428;2023-06-10T04:41:51;9.60;;;4.63;;
13185;SDS011;6658;53.080;7.428;2023-06-10T04:44:16;7.53;;;4.80;;
13185;SDS011;6658;53.080;7.428;2023-06-10T04:46:43;6.30;;;4.60;;
13185;SDS011;6658;53.080;7.428;2023-06-10T04:49:09;6.10;;;4.43;;
13185;SDS011;6658;53.080;7.428;2023-06-10T04:51:35;5.77;;;4.57;;
13185;SDS011;6658;53.080;7.428;2023-06-10T04:54:00;7.80;;;5.30;;
13185;SDS011;6658;53.080;7.428;2023-06-10T04:56:29;5.00;;;4.47;;
13185;SDS011;6658;53.080;7.428;2023-06-10T04:58:58;6.83;;;5.40;;
13185;SDS011;6658;53.080;7.428;2023-06-10T05:01:25;6.90;;;5.30;;
13185;SDS011;6658;53.080;7.428;2023-06-10T05:03:51;6.33;;;5.73;;
13185;SDS011;6658;53.080;7.428;2023-06-10T05:06:16;7.77;;;5.37;;
13185;SDS011;6658;53.080;7.428;2023-06-10T05:08:42;7.13;;;5.50;;
13185;SDS011;6658;53.080;7.428;2023-06-10T05:11:08;7.17;;;5.30;;
13185;SDS011;6658;53.080;7.428;2023-06-10T05:13:34;6.93;;;5.23;;
13185;SDS011;6658;53.080;7.428;2023-06-10T05:16:00;6.93;;;5.20;;
13185;SDS011;6658;53.080;7.428;2023-06-10T05:18:25;6.27;;;4.97;;
13185;SDS011;6658;53.080;7.428;2023-06-10T05:20:51;6.07;;;4.53;;
13185;SDS011;6658;53.080;7.428;2023-06-10T05:23:19;5.70;;;4.47;;
13185;SDS011;6658;53.080;7.428;2023-06-10T05:25:45;6.00;;;4.63;;
13185;SDS011;6658;53.080;7.428;2023-06-10T05:28:11;8.17;;;5.30;;
13185;SDS011;6658;53.080;7.428;2023-06-10T05:30:37;6.03;;;4.07;;
13185;SDS011;6658;53.080;7.428;2023-06-10T05:33:03;4.50;;;3.57;;
13185;SDS011;6658;53.080;7.428;2023-06-10T05:35:30;6.17;;;4.10;;
13185;SDS011;6658;53.080;7.428;2023-06-10T05:37:56;6.43;;;3.90;;
13185;SDS011;6658;53.080;7.428;2023-06-10T05:40:21;4.23;;;3.83;;
13185;SDS011;6658;53.080;7.428;2023-06-10T05:42:47;4.43;;;3.23;;
13185;SDS011;6658;53.080;7.428;2023-06-10T05:45:13;6.47;;;3.53;;
13185;SDS011;6658;53.080;7.428;2023-06-10T05:47:39;4.80;;;3.40;;
13185;SDS011;6658;53.080;7.428;2023-06-10T05:50:05;3.70;;;2.97;;
13185;SDS011;6658;53.080;7.428;2023-06-10T05:52:35;3.50;;;3.20;;
13185;SDS011;6658;53.080;7.428;2023-06-10T05:55:04;4.47;;;3.27;;
13185;SDS011;6658;53.080;7.428;2023-06-10T05:57:30;4.03;;;2.83;;
13185;SDS011;6658;53.080;7.428;2023-06-10T05:59:56;4.47;;;3.07;;
13185;SDS011;6658;53.080;7.428;2023-06-10T06:02:22;4.13;;;2.97;;
13185;SDS011;6658;53.080;7.428;2023-06-10T06:04:47;6.50;;;3.27;;
13185;SDS011;6658;53.080;7.428;2023-06-10T06:07:13;5.43;;;3.93;;
13185;SDS011;6658;53.080;7.428;2023-06-10T06:09:39;4.93;;;3.47;;
13185;SDS011;6658;53.080;7.428;2023-06-10T06:12:05;5.03;;;4.00;;
13185;SDS011;6658;53.080;7.428;2023-06-10T06:14:37;5.27;;;2.97;;
13185;SDS011;6658;53.080;7.428;2023-06-10T06:17:04;4.17;;;3.40;;
13185;SDS011;6658;53.080;7.428;2023-06-10T06:19:31;5.90;;;3.23;;
13185;SDS011;6658;53.080;7.428;2023-06-10T06:21:56;4.03;;;3.23;;
13185;SDS011;6658;53.080;7.428;2023-06-10T06:24:22;4.60;;;3.57;;
13185;SDS011;6658;53.080;7.428;2023-06-10T06:26:47;4.17;;;3.40;;
13185;SDS011;6658;53.080;7.428;2023-06-10T06:29:13;4.27;;;3.17;;
13185;SDS011;6658;53.080;7.428;2023-06-10T06:31:39;4.30;;;3.20;;
13185;SDS011;6658;53.080;7.428;2023-06-10T06:34:05;5.30;;;3.20;;
13185;SDS011;6658;53.080;7.428;2023-06-10T06:36:30;4.47;;;3.03;;
13185;SDS011;6658;53.080;7.428;2023-06-10T06:38:56;3.73;;;3.17;;
13185;SDS011;6658;53.080;7.428;2023-06-10T06:41:23;5.27;;;3.13;;
13185;SDS011;6658;53.080;7.428;2023-06-10T06:43:51;4.70;;;3.13;;
13185;SDS011;6658;53.080;7.428;2023-06-10T06:46:16;4.80;;;3.70;;
13185;SDS011;6658;53.080;7.428;2023-06-10T06:48:42;4.70;;;3.37;;
13185;SDS011;6658;53.080;7.428;2023-06-10T06:51:08;4.67;;;2.97;;
13185;SDS011;6658;53.080;7.428;2023-06-10T06:53:34;5.37;;;3.53;;
13185;SDS011;6658;53.080;7.428;2023-06-10T06:56:00;5.37;;;3.20;;
13185;SDS011;6658;53.080;7.428;2023-06-10T06:58:27;4.67;;;3.20;;
13185;SDS011;6658;53.080;7.428;2023-06-10T07:00:52;3.83;;;3.00;;
13185;SDS011;6658;53.080;7.428;2023-06-10T07:03:18;4.50;;;2.97;;
13185;SDS011;6658;53.080;7.428;2023-06-10T07:05:44;2.70;;;2.33;;
13185;SDS011;6658;53.080;7.428;2023-06-10T07:08:10;6.00;;;3.10;;
13185;SDS011;6658;53.080;7.428;2023-06-10T07:10:37;4.93;;;3.03;;
13185;SDS011;6658;53.080;7.428;2023-06-10T07:13:02;3.40;;;2.97;;
13185;SDS011;6658;53.080;7.428;2023-06-10T07:15:28;4.33;;;2.90;;
13185;SDS011;6658;53.080;7.428;2023-06-10T07:17:54;4.63;;;2.80;;
13185;SDS011;6658;53.080;7.428;2023-06-10T07:20:20;4.00;;;2.80;;
13185;SDS011;6658;53.080;7.428;2023-06-10T07:22:46;3.47;;;2.60;;
13185;SDS011;6658;53.080;7.428;2023-06-10T07:25:12;3.47;;;2.53;;
13185;SDS011;6658;53.080;7.428;2023-06-10T07:27:37;3.73;;;2.60;;
13185;SDS011;6658;53.080;7.428;2023-06-10T07:30:04;3.60;;;2.70;;
13185;SDS011;6658;53.080;7.428;2023-06-10T07:32:33;4.33;;;2.77;;
13185;SDS011;6658;53.080;7.428;2023-06-10T07:34:59;4.90;;;2.60;;
13185;SDS011;6658;53.080;7.428;2023-06-10T07:37:25;4.57;;;2.93;;
13185;SDS011;6658;53.080;7.428;2023-06-10T07:39:50;3.80;;;2.50;;
13185;SDS011;6658;53.080;7.428;2023-06-10T07:42:16;3.20;;;2.53;;
13185;SDS011;6658;53.080;7.428;2023-06-10T07:44:42;3.90;;;2.80;;
13185;SDS011;6658;53.080;7.428;2023-06-10T07:47:08;4.83;;;2.53;;
13185;SDS011;6658;53.080;7.428;2023-06-10T07:49:33;3.57;;;2.80;;
13185;SDS011;6658;53.080;7.428;2023-06-10T07:51:59;5.63;;;2.97;;
13185;SDS011;6658;53.080;7.428;2023-06-10T07:54:25;3.00;;;2.70;;
13185;SDS011;6658;53.080;7.428;2023-06-10T07:56:50;3.97;;;2.70;;
13185;SDS011;6658;53.080;7.428;2023-06-10T07:59:17;2.90;;;2.67;;
13185;SDS011;6658;53.080;7.428;2023-06-10T08:01:43;3.30;;;2.50;;
13185;SDS011;6658;53.080;7.428;2023-06-10T08:04:09;4.10;;;2.60;;
13185;SDS011;6658;53.080;7.428;2023-06-10T08:06:35;4.17;;;2.87;;
13185;SDS011;6658;53.080;7.428;2023-06-10T08:09:01;3.47;;;2.47;;
13185;SDS011;6658;53.080;7.428;2023-06-10T08:11:27;4.43;;;2.30;;
13185;SDS011;6658;53.080;7.428;2023-06-10T08:13:54;5.93;;;2.77;;
13185;SDS011;6658;53.080;7.428;2023-06-10T08:16:20;4.93;;;2.90;;
13185;SDS011;6658;53.080;7.428;2023-06-10T08:18:46;4.17;;;2.33;;
13185;SDS011;6658;53.080;7.428;2023-06-10T08:21:11;3.70;;;3.03;;
13185;SDS011;6658;53.080;7.428;2023-06-10T08:23:37;4.83;;;3.00;;
13185;SDS011;6658;53.080;7.428;2023-06-10T08:26:03;3.23;;;2.87;;
13185;SDS011;6658;53.080;7.428;2023-06-10T08:28:28;3.63;;;2.57;;
13185;SDS011;6658;53.080;7.428;2023-06-10T08:30:54;3.00;;;2.57;;
13185;SDS011;6658;53.080;7.428;2023-06-10T08:33:20;4.00;;;2.70;;
13185;SDS011;6658;53.080;7.428;2023-06-10T08:35:45;5.13;;;2.60;;
13185;SDS011;6658;53.080;7.428;2023-06-10T08:38:11;6.67;;;3.73;;
13185;SDS011;6658;53.080;7.428;2023-06-10T08:40:37;4.07;;;2.90;;
13185;SDS011;6658;53.080;7.428;2023-06-10T08:43:06;6.15;;;3.22;;
13185;SDS011;6658;53.080;7.428;2023-06-10T08:45:34;4.45;;;2.90;;
13185;SDS011;6658;53.080;7.428;2023-06-10T08:48:04;3.53;;;2.42;;
13185;SDS011;6658;53.080;7.428;2023-06-10T08:50:34;5.05;;;2.92;;
13185;SDS011;6658;53.080;7.428;2023-06-10T08:53:01;3.85;;;3.10;;
13185;SDS011;6658;53.080;7.428;2023-06-10T08:55:31;4.20;;;3.15;;
13185;SDS011;6658;53.080;7.428;2023-06-10T08:57:59;4.55;;;3.40;;
13185;SDS011;6658;53.080;7.428;2023-06-10T09:00:26;4.00;;;2.55;;
13185;SDS011;6658;53.080;7.428;2023-06-10T09:02:52;4.47;;;2.83;;
13185;SDS011;6658;53.080;7.428;2023-06-10T09:05:19;4.03;;;2.70;;
13185;SDS011;6658;53.080;7.428;2023-06-10T09:07:45;5.37;;;2.80;;
13185;SDS011;6658;53.080;7.428;2023-06-10T09:10:13;3.35;;;2.90;;
13185;SDS011;6658;53.080;7.428;2023-06-10T09:12:38;6.57;;;2.90;;
13185;SDS011;6658;53.080;7.428;2023-06-10T09:15:05;3.75;;;2.60;;
13185;SDS011;6658;53.080;7.428;2023-06-10T09:17:31;3.07;;;2.50;;
13185;SDS011;6658;53.080;7.428;2023-06-10T09:19:58;4.15;;;2.78;;
13185;SDS011;6658;53.080;7.428;2023-06-10T09:22:25;4.60;;;2.90;;
13185;SDS011;6658;53.080;7.428;2023-06-10T09:24:52;3.15;;;2.60;;
13185;SDS011;6658;53.080;7.428;2023-06-10T09:27:43;4.40;;;2.67;;
13185;SDS011;6658;53.080;7.428;2023-06-10T09:30:11;3.97;;;2.92;;
13185;SDS011;6658;53.080;7.428;2023-06-10T09:32:51;3.47;;;2.63;;
13185;SDS011;6658;53.080;7.428;2023-06-10T09:35:18;3.22;;;2.50;;
13185;SDS011;6658;53.080;7.428;2023-06-10T09:37:44;4.93;;;2.40;;
13185;SDS011;6658;53.080;7.428;2023-06-10T09:40:12;4.90;;;2.75;;
13185;SDS011;6658;53.080;7.428;2023-06-10T09:42:38;6.28;;;2.55;;
13185;SDS011;6658;53.080;7.428;2023-06-10T09:45:08;4.18;;;3.03;;
13185;SDS011;6658;53.080;7.428;2023-06-10T09:47:34;3.53;;;2.70;;
13185;SDS011;6658;53.080;7.428;2023-06-10T09:49:59;4.03;;;2.55;;
13185;SDS011;6658;53.080;7.428;2023-06-10T09:52:27;6.18;;;3.10;;
13185;SDS011;6658;53.080;7.428;2023-06-10T09:55:00;4.47;;;2.65;;
13185;SDS011;6658;53.080;7.428;2023-06-10T09:57:30;2.55;;;2.35;;
13185;SDS011;6658;53.080;7.428;2023-06-10T10:00:10;4.07;;;2.72;;
13185;SDS011;6658;53.080;7.428;2023-06-10T10:02:49;2.75;;;2.50;;
13185;SDS011;6658;53.080;7.428;2023-06-10T10:05:19;4.43;;;2.50;;
13185;SDS011;6658;53.080;7.428;2023-06-10T10:07:48;3.55;;;2.58;;
13185;SDS011;6658;53.080;7.428;2023-06-10T10:10:15;4.63;;;2.50;;
13185;SDS011;6658;53.080;7.428;2023-06-10T10:12:51;5.07;;;2.78;;
13185;SDS011;6658;53.080;7.428;2023-06-10T10:15:28;3.35;;;2.58;;
13185;SDS011;6658;53.080;7.428;2023-06-10T10:18:05;4.97;;;2.83;;
13185;SDS011;6658;53.080;7.428;2023-06-10T10:20:34;3.47;;;2.60;;
13185;SDS011;6658;53.080;7.428;2023-06-10T10:23:08;4.40;;;2.72;;
13185;SDS011;6658;53.080;7.428;2023-06-10T10:25:41;5.05;;;2.55;;
13185;SDS011;6658;53.080;7.428;2023-06-10T10:28:11;4.72;;;2.50;;
13185;SDS011;6658;53.080;7.428;2023-06-10T10:31:19;7.15;;;2.50;;
13185;SDS011;6658;53.080;7.428;2023-06-10T10:33:35;5.53;;;2.60;;
13185;SDS011;6658;53.080;7.428;2023-06-10T10:36:17;4.47;;;2.92;;
13185;SDS011;6658;53.080;7.428;2023-06-10T10:38:47;2.88;;;2.30;;
13185;SDS011;6658;53.080;7.428;2023-06-10T10:41:17;2.75;;;2.40;;
13185;SDS011;6658;53.080;7.428;2023-06-10T10:43:51;3.22;;;2.38;;
13185;SDS011;6658;53.080;7.428;2023-06-10T10:46:18;3.88;;;2.47;;
13185;SDS011;6658;53.080;7.428;2023-06-10T10:48:44;3.55;;;2.72;;
13185;SDS011;6658;53.080;7.428;2023-06-10T10:51:10;4.18;;;2.45;;
13185;SDS011;6658;53.080;7.428;2023-06-10T10:53:39;3.13;;;2.15;;
13185;SDS011;6658;53.080;7.428;2023-06-10T10:56:06;4.30;;;2.20;;
13185;SDS011;6658;53.080;7.428;2023-06-10T10:58:36;3.58;;;2.30;;
13185;SDS011;6658;53.080;7.428;2023-06-10T11:01:11;4.95;;;2.55;;
13185;SDS011;6658;53.080;7.428;2023-06-10T11:03:43;5.28;;;2.72;;
13185;SDS011;6658;53.080;7.428;2023-06-10T11:06:13;4.63;;;2.40;;
13185;SDS011;6658;53.080;7.428;2023-06-10T11:11:23;3.22;;;2.60;;
13185;SDS011;6658;53.080;7.428;2023-06-10T11:16:30;3.03;;;2.15;;
13185;SDS011;6658;53.080;7.428;2023-06-10T11:19:10;4.45;;;2.45;;
13185;SDS011;6658;53.080;7.428;2023-06-10T11:22:05;3.17;;;2.33;;
13185;SDS011;6658;53.080;7.428;2023-06-10T11:24:32;4.30;;;2.33;;
13185;SDS011;6658;53.080;7.428;2023-06-10T11:27:14;3.78;;;2.33;;
13185;SDS011;6658;53.080;7.428;2023-06-10T11:32:33;2.92;;;1.85;;
13185;SDS011;6658;53.080;7.428;2023-06-10T11:35:00;3.30;;;2.45;;
13185;SDS011;6658;53.080;7.428;2023-06-10T11:37:29;3.60;;;2.15;;
13185;SDS011;6658;53.080;7.428;2023-06-10T11:39:55;3.50;;;2.38;;
13185;SDS011;6658;53.080;7.428;2023-06-10T11:42:21;4.03;;;2.25;;
13185;SDS011;6658;53.080;7.428;2023-06-10T11:44:50;4.20;;;2.03;;
13185;SDS011;6658;53.080;7.428;2023-06-10T11:47:17;3.30;;;2.25;;
13185;SDS011;6658;53.080;7.428;2023-06-10T11:49:44;3.85;;;2.10;;
13185;SDS011;6658;53.080;7.428;2023-06-10T11:52:11;4.03;;;2.13;;
13185;SDS011;6658;53.080;7.428;2023-06-10T11:54:38;4.90;;;2.22;;
13185;SDS011;6658;53.080;7.428;2023-06-10T11:57:03;4.05;;;2.38;;
13185;SDS011;6658;53.080;7.428;2023-06-10T11:59:30;3.67;;;1.80;;
13185;SDS011;6658;53.080;7.428;2023-06-10T12:01:56;2.90;;;1.85;;
13185;SDS011;6658;53.080;7.428;2023-06-10T12:04:22;2.25;;;2.00;;
13185;SDS011;6658;53.080;7.428;2023-06-10T12:06:49;2.38;;;1.90;;
13185;SDS011;6658;53.080;7.428;2023-06-10T12:09:20;3.58;;;2.00;;
13185;SDS011;6658;53.080;7.428;2023-06-10T12:12:03;4.25;;;2.22;;
13185;SDS011;6658;53.080;7.428;2023-06-10T12:17:23;4.00;;;2.53;;
13185;SDS011;6658;53.080;7.428;2023-06-10T12:20:05;2.53;;;2.20;;
13185;SDS011;6658;53.080;7.428;2023-06-10T12:22:39;3.75;;;2.40;;
13185;SDS011;6658;53.080;7.428;2023-06-10T12:25:07;3.17;;;2.20;;
13185;SDS011;6658;53.080;7.428;2023-06-10T12:27:34;3.70;;;2.33;;
13185;SDS011;6658;53.080;7.428;2023-06-10T12:30:03;2.67;;;2.33;;
13185;SDS011;6658;53.080;7.428;2023-06-10T12:35:03;3.47;;;2.70;;
13185;SDS011;6658;53.080;7.428;2023-06-10T12:37:29;3.03;;;2.30;;
13185;SDS011;6658;53.080;7.428;2023-06-10T12:39:59;3.78;;;2.13;;
13185;SDS011;6658;53.080;7.428;2023-06-10T12:42:27;4.18;;;2.70;;
13185;SDS011;6658;53.080;7.428;2023-06-10T12:44:55;3.20;;;2.17;;
13185;SDS011;6658;53.080;7.428;2023-06-10T12:47:31;2.58;;;1.88;;
13185;SDS011;6658;53.080;7.428;2023-06-10T12:50:00;3.03;;;2.03;;
13185;SDS011;6658;53.080;7.428;2023-06-10T12:52:29;3.85;;;2.20;;
13185;SDS011;6658;53.080;7.428;2023-06-10T12:54:55;3.58;;;2.20;;
13185;SDS011;6658;53.080;7.428;2023-06-10T12:57:21;5.55;;;2.15;;
13185;SDS011;6658;53.080;7.428;2023-06-10T12:59:47;2.78;;;1.90;;
13185;SDS011;6658;53.080;7.428;2023-06-10T13:02:25;3.00;;;2.20;;
13185;SDS011;6658;53.080;7.428;2023-06-10T13:04:51;2.67;;;2.05;;
13185;SDS011;6658;53.080;7.428;2023-06-10T13:07:16;3.67;;;2.20;;
13185;SDS011;6658;53.080;7.428;2023-06-10T13:09:43;3.13;;;2.20;;
13185;SDS011;6658;53.080;7.428;2023-06-10T13:12:09;3.97;;;2.35;;
13185;SDS011;6658;53.080;7.428;2023-06-10T13:14:35;4.05;;;1.98;;
13185;SDS011;6658;53.080;7.428;2023-06-10T13:17:02;3.17;;;1.80;;
13185;SDS011;6658;53.080;7.428;2023-06-10T13:19:30;3.38;;;2.50;;
13185;SDS011;6658;53.080;7.428;2023-06-10T13:21:57;3.25;;;2.10;;
13185;SDS011;6658;53.080;7.428;2023-06-10T13:24:22;2.28;;;2.00;;
13185;SDS011;6658;53.080;7.428;2023-06-10T13:26:48;3.97;;;1.98;;
13185;SDS011;6658;53.080;7.428;2023-06-10T13:29:14;2.72;;;1.60;;
13185;SDS011;6658;53.080;7.428;2023-06-10T13:31:40;4.90;;;1.70;;
13185;SDS011;6658;53.080;7.428;2023-06-10T13:34:06;4.47;;;2.15;;
13185;SDS011;6658;53.080;7.428;2023-06-10T13:36:32;2.95;;;2.00;;
13185;SDS011;6658;53.080;7.428;2023-06-10T13:38:58;4.13;;;1.88;;
13185;SDS011;6658;53.080;7.428;2023-06-10T13:41:23;3.63;;;1.73;;
13185;SDS011;6658;53.080;7.428;2023-06-10T13:43:49;2.45;;;1.90;;
13185;SDS011;6658;53.080;7.428;2023-06-10T13:46:15;3.28;;;2.10;;
13185;SDS011;6658;53.080;7.428;2023-06-10T13:48:41;2.55;;;1.63;;
13185;SDS011;6658;53.080;7.428;2023-06-10T13:51:08;3.55;;;1.80;;
13185;SDS011;6658;53.080;7.428;2023-06-10T13:53:34;3.45;;;2.03;;
13185;SDS011;6658;53.080;7.428;2023-06-10T13:56:01;2.08;;;1.80;;
13185;SDS011;6658;53.080;7.428;2023-06-10T13:58:27;3.05;;;2.05;;
13185;SDS011;6658;53.080;7.428;2023-06-10T14:00:52;3.47;;;2.45;;
13185;SDS011;6658;53.080;7.428;2023-06-10T14:03:18;2.80;;;1.65;;
13185;SDS011;6658;53.080;7.428;2023-06-10T14:05:44;2.60;;;1.90;;
13185;SDS011;6658;53.080;7.428;2023-06-10T14:08:10;3.25;;;1.42;;
13185;SDS011;6658;53.080;7.428;2023-06-10T14:10:35;2.10;;;1.50;;
13185;SDS011;6658;53.080;7.428;2023-06-10T14:13:01;2.80;;;1.67;;
13185;SDS011;6658;53.080;7.428;2023-06-10T14:15:27;3.80;;;1.85;;
13185;SDS011;6658;53.080;7.428;2023-06-10T14:17:52;2.30;;;1.60;;
13185;SDS011;6658;53.080;7.428;2023-06-10T14:20:18;4.10;;;1.92;;
13185;SDS011;6658;53.080;7.428;2023-06-10T14:22:44;2.65;;;2.00;;
13185;SDS011;6658;53.080;7.428;2023-06-10T14:25:09;2.33;;;1.70;;
13185;SDS011;6658;53.080;7.428;2023-06-10T14:27:36;2.58;;;1.85;;
13185;SDS011;6658;53.080;7.428;2023-06-10T14:30:02;2.42;;;1.73;;
13185;SDS011;6658;53.080;7.428;2023-06-10T14:32:28;2.70;;;2.03;;
13185;SDS011;6658;53.080;7.428;2023-06-10T14:34:54;2.30;;;1.77;;
13185;SDS011;6658;53.080;7.428;2023-06-10T14:37:20;1.92;;;1.77;;
13185;SDS011;6658;53.080;7.428;2023-06-10T14:39:46;2.15;;;1.70;;
13185;SDS011;6658;53.080;7.428;2023-06-10T14:42:12;3.28;;;1.70;;
13185;SDS011;6658;53.080;7.428;2023-06-10T14:44:37;2.10;;;1.50;;
13185;SDS011;6658;53.080;7.428;2023-06-10T14:47:03;1.77;;;1.50;;
13185;SDS011;6658;53.080;7.428;2023-06-10T14:49:29;2.08;;;1.60;;
13185;SDS011;6658;53.080;7.428;2023-06-10T14:51:55;2.88;;;1.70;;
13185;SDS011;6658;53.080;7.428;2023-06-10T14:54:21;2.47;;;1.95;;
13185;SDS011;6658;53.080;7.428;2023-06-10T14:56:47;3.95;;;1.58;;
13185;SDS011;6658;53.080;7.428;2023-06-10T14:59:12;2.35;;;1.77;;
13185;SDS011;6658;53.080;7.428;2023-06-10T15:01:38;2.33;;;1.95;;
13185;SDS011;6658;53.080;7.428;2023-06-10T15:04:04;3.17;;;1.92;;
13185;SDS011;6658;53.080;7.428;2023-06-10T15:06:30;3.25;;;1.73;;
13185;SDS011;6658;53.080;7.428;2023-06-10T15:08:55;2.42;;;1.70;;
13185;SDS011;6658;53.080;7.428;2023-06-10T15:11:21;2.30;;;1.70;;
13185;SDS011;6658;53.080;7.428;2023-06-10T15:13:47;4.72;;;1.75;;
13185;SDS011;6658;53.080;7.428;2023-06-10T15:16:12;4.30;;;1.80;;
13185;SDS011;6658;53.080;7.428;2023-06-10T15:18:40;2.70;;;1.85;;